Time,TemperatureF,DewpointF,PressureIn,WindDirection,WindDirectionDegrees,WindSpeedMPH,WindSpeedGustMPH,Humidity,HourlyPrecipIn,Conditions,Clouds,dailyrainin,SoftwareType,DateUTC
2013-07-03 00:04:00,75.2,73.0,30.10,ENE,62,0.0,0.0,93,0.00,,SCT,0.00,WeatherDisplay:10.37,2013-07-03 04:04:00,
2013-07-03 00:09:00,75.2,73.0,30.10,ENE,63,0.0,0.0,93,0.00,,SCT,0.00,WeatherDisplay:10.37,2013-07-03 04:09:00,
2013-07-03 00:14:00,75.1,73.0,30.10,ENE,63,0.0,0.0,93,0.00,,SCT,0.00,WeatherDisplay:10.37,2013-07-03 04:14:00,
2013-07-03 00:19:00,75.1,72.9,30.10,ENE,63,0.0,1.0,93,0.00,,SCT,0.00,WeatherDisplay:10.37,2013-07-03 04:19:00,
2013-07-03 00:24:00,75.0,72.8,30.10,ENE,63,0.0,0.0,93,0.00,,SCT,0.00,WeatherDisplay:10.37,2013-07-03 04:24:00,
2013-07-03 00:29:00,74.9,72.7,30.10,ENE,63,0.0,0.0,93,0.00,,SCT,0.00,WeatherDisplay:10.37,2013-07-03 04:29:00,
2013-07-03 00:34:00,74.8,72.6,30.10,ENE,63,0.0,0.0,93,0.00,,SCT,0.00,WeatherDisplay:10.37,2013-07-03 04:34:00,
2013-07-03 00:39:00,74.8,73.0,30.10,ENE,63,0.0,1.0,94,0.00,,SCT,0.00,WeatherDisplay:10.37,2013-07-03 04:39:00,
2013-07-03 00:44:00,74.7,72.9,30.10,ESE,121,0.0,1.0,94,0.00,,SCT,0.00,WeatherDisplay:10.37,2013-07-03 04:44:00,
2013-07-03 00:49:00,74.7,72.9,30.10,South,187,0.0,1.0,94,0.00,,SCT,0.00,WeatherDisplay:10.37,2013-07-03 04:49:00,
2013-07-03 00:54:00,74.7,73.2,30.10,South,190,0.0,1.0,95,0.00,,SCT,0.00,WeatherDisplay:10.37,2013-07-03 04:54:00,
2013-07-03 00:59:00,74.8,73.3,30.09,SSW,206,0.0,1.0,95,0.00,,SCT,0.00,WeatherDisplay:10.37,2013-07-03 04:59:00,
2013-07-03 01:04:00,74.7,73.2,30.09,SSE,165,0.0,1.0,95,0.00,,SCT,0.00,WeatherDisplay:10.37,2013-07-03 05:04:00,
2013-07-03 01:09:00,74.7,73.2,30.10,South,169,0.0,1.0,95,0.00,,SCT,0.00,WeatherDisplay:10.37,2013-07-03 05:09:00,
2013-07-03 01:14:00,74.7,73.2,30.10,SSW,200,0.0,1.0,95,0.00,,SCT,0.00,WeatherDisplay:10.37,2013-07-03 05:14:00,
2013-07-03 01:19:00,74.7,73.2,30.10,SSW,207,0.0,0.0,95,0.00,,SCT,0.00,WeatherDisplay:10.37,2013-07-03 05:19:00,
2013-07-03 01:24:00,74.7,73.1,30.10,SSW,207,0.0,1.0,95,0.00,,SCT,0.00,WeatherDisplay:10.37,2013-07-03 05:24:00,
2013-07-03 01:29:00,74.6,73.1,30.10,SSW,199,0.0,0.0,95,0.00,,SCT,0.00,WeatherDisplay:10.37,2013-07-03 05:29:00,
2013-07-03 01:34:00,74.5,73.0,30.10,South,170,0.0,0.0,95,0.00,,SCT,0.00,WeatherDisplay:10.37,2013-07-03 05:34:00,
2013-07-03 01:39:00,74.5,73.0,30.10,SSE,153,0.0,0.0,95,0.00,,SCT,0.00,WeatherDisplay:10.37,2013-07-03 05:39:00,
2013-07-03 01:44:00,74.4,73.2,30.10,SSE,153,0.0,0.0,96,0.00,,SCT,0.00,WeatherDisplay:10.37,2013-07-03 05:44:00,
2013-07-03 01:49:00,74.3,73.1,30.09,SSE,153,0.0,0.0,96,0.00,,SCT,0.00,WeatherDisplay:10.37,2013-07-03 05:49:00,
2013-07-03 01:54:00,74.2,73.0,30.09,SSE,153,0.0,0.0,96,0.00,,SCT,0.00,WeatherDisplay:10.37,2013-07-03 05:54:00,
2013-07-03 01:59:00,74.2,73.0,30.09,SSE,153,0.0,0.0,96,0.00,,SCT,0.00,WeatherDisplay:10.37,2013-07-03 05:59:00,
2013-07-03 02:09:00,74.0,72.8,30.09,SSE,152,0.0,0.0,96,0.00,,SCT,0.00,WeatherDisplay:10.37,2013-07-03 06:09:00,
2013-07-03 02:14:00,73.9,72.7,30.09,SSE,152,0.0,0.0,96,0.00,,SCT,0.00,WeatherDisplay:10.37,2013-07-03 06:14:00,
2013-07-03 02:29:00,73.6,72.4,30.09,SSE,152,0.0,0.0,96,0.00,,SCT,0.00,WeatherDisplay:10.37,2013-07-03 06:29:00,
2013-07-03 02:34:00,73.5,72.3,30.09,SSE,152,0.0,0.0,96,0.00,,SCT,0.00,WeatherDisplay:10.37,2013-07-03 06:34:00,
2013-07-03 02:39:00,73.5,72.3,30.08,SSE,152,0.0,0.0,96,0.00,,SCT,0.00,WeatherDisplay:10.37,2013-07-03 06:39:00,
2013-07-03 02:44:00,73.5,72.3,30.08,SSE,152,0.0,0.0,96,0.00,,SCT,0.00,WeatherDisplay:10.37,2013-07-03 06:44:00,
2013-07-03 02:49:00,73.4,72.2,30.08,SSE,152,0.0,0.0,96,0.00,,SCT,0.00,WeatherDisplay:10.37,2013-07-03 06:49:00,
2013-07-03 02:54:00,73.3,72.4,30.08,SSE,152,0.0,0.0,97,0.00,,SCT,0.00,WeatherDisplay:10.37,2013-07-03 06:54:00,
2013-07-03 02:59:00,73.5,72.6,30.08,SSE,152,0.0,0.0,97,0.00,,SCT,0.00,WeatherDisplay:10.37,2013-07-03 06:59:00,
2013-07-03 03:04:00,73.5,72.6,30.08,SSE,152,0.0,0.0,97,0.00,,SCT,0.00,WeatherDisplay:10.37,2013-07-03 07:04:00,
2013-07-03 03:09:00,73.4,72.5,30.08,SSE,152,0.0,0.0,97,0.00,,SCT,0.00,WeatherDisplay:10.37,2013-07-03 07:09:00,
2013-07-03 03:14:00,73.3,72.4,30.08,SSE,152,0.0,0.0,97,0.00,,SCT,0.00,WeatherDisplay:10.37,2013-07-03 07:14:00,
2013-07-03 03:24:00,73.1,72.2,30.08,SSE,152,0.0,0.0,97,0.00,,SCT,0.00,WeatherDisplay:10.37,2013-07-03 07:24:00,
2013-07-03 03:29:00,73.1,72.2,30.08,SSE,152,0.0,0.0,97,0.00,,SCT,0.00,WeatherDisplay:10.37,2013-07-03 07:29:00,
2013-07-03 03:39:00,73.3,72.4,30.07,SSE,152,0.0,0.0,97,0.00,,SCT,0.00,WeatherDisplay:10.37,2013-07-03 07:39:00,
2013-07-03 03:44:00,73.2,72.3,30.07,SSE,152,0.0,0.0,97,0.00,,SCT,0.00,WeatherDisplay:10.37,2013-07-03 07:44:00,
2013-07-03 03:49:00,73.1,72.2,30.07,SSE,152,0.0,0.0,97,0.00,,SCT,0.00,WeatherDisplay:10.37,2013-07-03 07:49:00,
2013-07-03 03:54:00,73.1,72.2,30.07,SSE,152,0.0,0.0,97,0.00,,SCT,0.00,WeatherDisplay:10.37,2013-07-03 07:54:00,
2013-07-03 03:59:00,73.1,72.2,30.07,SSE,152,0.0,0.0,97,0.00,,SCT,0.00,WeatherDisplay:10.37,2013-07-03 07:59:00,
2013-07-03 04:09:00,72.9,72.0,30.07,SSE,152,0.0,0.0,97,0.00,,SCT,0.00,WeatherDisplay:10.37,2013-07-03 08:09:00,
2013-07-03 04:14:00,73.0,72.4,30.07,SSE,152,0.0,0.0,98,0.00,,SCT,0.00,WeatherDisplay:10.37,2013-07-03 08:14:00,
2013-07-03 04:19:00,73.1,72.5,30.07,SSE,152,0.0,0.0,98,0.00,,SCT,0.00,WeatherDisplay:10.37,2013-07-03 08:19:00,
2013-07-03 04:24:00,73.1,72.5,30.07,SSE,152,0.0,0.0,98,0.00,,SCT,0.00,WeatherDisplay:10.37,2013-07-03 08:24:00,
2013-07-03 04:29:00,73.2,72.6,30.07,South,179,0.0,0.0,98,0.00,,SCT,0.00,WeatherDisplay:10.37,2013-07-03 08:29:00,
2013-07-03 04:34:00,73.2,72.6,30.07,SSW,211,0.0,0.0,98,0.00,,SCT,0.00,WeatherDisplay:10.37,2013-07-03 08:34:00,
2013-07-03 04:39:00,73.3,72.7,30.07,SW,214,0.0,1.0,98,0.00,,SCT,0.00,WeatherDisplay:10.37,2013-07-03 08:39:00,
2013-07-03 04:54:00,73.2,72.6,30.07,SW,214,0.0,0.0,98,0.00,,SCT,0.00,WeatherDisplay:10.37,2013-07-03 08:54:00,
2013-07-03 04:59:00,73.2,72.6,30.07,SW,215,0.0,0.0,98,0.00,,SCT,0.00,WeatherDisplay:10.37,2013-07-03 08:59:00,
2013-07-03 05:04:00,73.2,72.6,30.07,SSW,200,0.0,1.0,98,0.00,,SCT,0.00,WeatherDisplay:10.37,2013-07-03 09:04:00,
2013-07-03 05:14:00,73.3,72.7,30.07,SE,145,0.0,1.0,98,0.00,,SCT,0.00,WeatherDisplay:10.37,2013-07-03 09:14:00,
2013-07-03 05:19:00,73.2,72.6,30.08,SE,138,0.0,1.0,98,0.00,,SCT,0.00,WeatherDisplay:10.37,2013-07-03 09:19:00,
2013-07-03 05:24:00,73.2,72.6,30.08,SE,139,0.0,0.0,98,0.00,,SCT,0.00,WeatherDisplay:10.37,2013-07-03 09:24:00,
2013-07-03 05:29:00,73.2,72.6,30.08,SE,139,0.0,0.0,98,0.00,,SCT,0.00,WeatherDisplay:10.37,2013-07-03 09:29:00,
2013-07-03 05:34:00,73.2,72.6,30.08,SE,139,0.0,1.0,98,0.00,,SCT,0.00,WeatherDisplay:10.37,2013-07-03 09:34:00,
2013-07-03 05:39:00,73.2,72.6,30.08,SE,139,0.0,1.0,98,0.00,,SCT,0.00,WeatherDisplay:10.37,2013-07-03 09:39:00,
2013-07-03 05:44:00,73.2,72.6,30.08,SE,141,0.0,1.0,98,0.00,,SCT,0.00,WeatherDisplay:10.37,2013-07-03 09:44:00,
2013-07-03 05:54:00,73.3,72.7,30.08,SE,143,0.0,0.0,98,0.00,,SCT,0.00,WeatherDisplay:10.37,2013-07-03 09:54:00,
2013-07-03 05:59:00,73.3,72.7,30.08,SE,143,0.0,1.0,98,0.00,,SCT,0.00,WeatherDisplay:10.37,2013-07-03 09:59:00,
2013-07-03 06:09:00,73.4,72.8,30.08,SE,141,0.0,1.0,98,0.00,,SCT,0.00,WeatherDisplay:10.37,2013-07-03 10:09:00,
2013-07-03 06:14:00,73.4,72.8,30.08,SE,142,0.0,1.0,98,0.00,,SCT,0.00,WeatherDisplay:10.37,2013-07-03 10:14:00,
2013-07-03 06:19:00,73.4,72.8,30.08,South,176,0.0,0.0,98,0.00,,SCT,0.00,WeatherDisplay:10.37,2013-07-03 10:19:00,
2013-07-03 06:29:00,73.4,72.8,30.08,SSW,195,0.0,0.0,98,0.00,,SCT,0.00,WeatherDisplay:10.37,2013-07-03 10:29:00,
2013-07-03 06:34:00,73.4,72.8,30.08,SSW,194,0.0,0.0,98,0.00,,SCT,0.00,WeatherDisplay:10.37,2013-07-03 10:34:00,
2013-07-03 06:44:00,73.6,73.0,30.08,SE,145,0.0,1.0,98,0.00,,SCT,0.00,WeatherDisplay:10.37,2013-07-03 10:44:00,
2013-07-03 06:54:00,73.7,73.1,30.09,SSE,154,0.0,1.0,98,0.00,,SCT,0.00,WeatherDisplay:10.37,2013-07-03 10:54:00,
2013-07-03 06:59:00,73.8,73.2,30.09,SSE,157,0.0,0.0,98,0.00,,SCT,0.00,WeatherDisplay:10.37,2013-07-03 10:59:00,
2013-07-03 07:04:00,73.8,73.2,30.09,SSE,163,0.0,1.0,98,0.00,,SCT,0.00,WeatherDisplay:10.37,2013-07-03 11:04:00,
2013-07-03 07:34:00,74.8,74.2,30.10,SE,133,0.0,1.0,98,0.00,,SCT,0.00,WeatherDisplay:10.37,2013-07-03 11:34:00,
2013-07-03 07:39:00,75.0,74.4,30.10,SE,140,0.0,1.0,98,0.00,,SCT,0.00,WeatherDisplay:10.37,2013-07-03 11:39:00,
2013-07-03 07:44:00,75.1,74.5,30.10,SSE,161,0.0,2.0,98,0.00,,SCT,0.00,WeatherDisplay:10.37,2013-07-03 11:44:00,
2013-07-03 07:49:00,75.4,74.8,30.10,South,183,1.0,2.0,98,0.00,,SCT,0.00,WeatherDisplay:10.37,2013-07-03 11:49:00,
2013-07-03 07:54:00,75.7,75.1,30.10,South,169,0.0,2.0,98,0.00,,SCT,0.00,WeatherDisplay:10.37,2013-07-03 11:54:00,
2013-07-03 07:59:00,75.9,75.0,30.10,SSE,162,0.0,1.0,97,0.00,,SCT,0.00,WeatherDisplay:10.37,2013-07-03 11:59:00,
2013-07-03 08:09:00,76.2,75.0,30.11,SSE,166,0.0,2.0,96,0.00,,SCT,0.00,WeatherDisplay:10.37,2013-07-03 12:09:00,
2013-07-03 08:14:00,76.3,75.1,30.11,South,177,0.0,2.0,96,0.00,,SCT,0.00,WeatherDisplay:10.37,2013-07-03 12:14:00,
2013-07-03 08:19:00,76.5,75.3,30.11,South,173,0.0,2.0,96,0.00,,SCT,0.00,WeatherDisplay:10.37,2013-07-03 12:19:00,
2013-07-03 08:29:00,77.0,75.5,30.12,SSE,159,0.0,2.0,95,0.00,,SCT,0.00,WeatherDisplay:10.37,2013-07-03 12:29:00,
2013-07-03 08:34:00,77.3,75.7,30.12,SSE,165,2.0,4.0,95,0.00,,SCT,0.00,WeatherDisplay:10.37,2013-07-03 12:34:00,
2013-07-03 08:39:00,77.6,76.1,30.12,SSE,157,1.0,3.0,95,0.00,,SCT,0.00,WeatherDisplay:10.37,2013-07-03 12:39:00,
2013-07-03 08:49:00,78.3,76.1,30.12,SSE,168,1.0,2.0,93,0.00,,SCT,0.00,WeatherDisplay:10.37,2013-07-03 12:49:00,
2013-07-03 08:54:00,78.7,76.5,30.12,South,172,1.0,4.0,93,0.00,,SCT,0.00,WeatherDisplay:10.37,2013-07-03 12:54:00,
2013-07-03 08:59:00,78.9,76.4,30.12,SSE,158,1.0,5.0,92,0.00,,SCT,0.00,WeatherDisplay:10.37,2013-07-03 12:59:00,
2013-07-03 09:04:00,79.2,76.3,30.13,SSE,161,0.0,4.0,91,0.00,,SCT,0.00,WeatherDisplay:10.37,2013-07-03 13:04:00,
2013-07-03 09:09:00,79.5,76.6,30.13,SSE,163,1.0,4.0,91,0.00,,SCT,0.00,WeatherDisplay:10.37,2013-07-03 13:09:00,
2013-07-03 09:14:00,79.8,76.6,30.12,SSE,164,1.0,3.0,90,0.00,,SCT,0.00,WeatherDisplay:10.37,2013-07-03 13:14:00,
2013-07-03 09:19:00,80.1,76.9,30.12,South,173,0.0,2.0,90,0.00,,SCT,0.00,WeatherDisplay:10.37,2013-07-03 13:19:00,
2013-07-03 09:24:00,80.4,76.9,30.12,SSE,165,2.0,4.0,89,0.00,,SCT,0.00,WeatherDisplay:10.37,2013-07-03 13:24:00,
2013-07-03 09:29:00,80.8,76.9,30.12,SSE,149,1.0,3.0,88,0.00,,SCT,0.00,WeatherDisplay:10.37,2013-07-03 13:29:00,
2013-07-03 09:34:00,81.6,77.7,30.12,SSE,148,0.0,3.0,88,0.00,,SCT,0.00,WeatherDisplay:10.37,2013-07-03 13:34:00,
2013-07-03 09:39:00,82.4,78.1,30.12,SSE,151,1.0,4.0,87,0.00,,SCT,0.00,WeatherDisplay:10.37,2013-07-03 13:39:00,
2013-07-03 09:44:00,83.0,77.7,30.12,SSE,163,2.0,5.0,84,0.00,CLR,SCT,0.00,WeatherDisplay:10.37,2013-07-03 13:44:00,
2013-07-03 09:54:00,83.8,78.1,30.12,SSE,159,2.0,7.0,83,0.00,CLR,SCT,0.00,WeatherDisplay:10.37,2013-07-03 13:54:00,
2013-07-03 10:04:00,84.7,78.3,30.12,SSE,166,1.0,6.0,81,0.00,CLR,SCT,0.00,WeatherDisplay:10.37,2013-07-03 14:04:00,
2013-07-03 10:14:00,85.4,78.2,30.12,SSE,160,2.0,8.0,79,0.00,CLR,SCT,0.00,WeatherDisplay:10.37,2013-07-03 14:14:00,
2013-07-03 10:19:00,85.1,77.8,30.12,SSE,162,2.0,9.0,79,0.00,CLR,SCT,0.00,WeatherDisplay:10.37,2013-07-03 14:19:00,
2013-07-03 10:24:00,84.8,77.6,30.12,SSE,156,2.0,6.0,79,0.00,CLR,SCT,0.00,WeatherDisplay:10.37,2013-07-03 14:24:00,
2013-07-03 10:29:00,84.8,77.2,30.12,SSE,153,2.0,5.0,78,0.00,CLR,SCT,0.00,WeatherDisplay:10.37,2013-07-03 14:29:00,
2013-07-03 10:44:00,85.1,77.1,30.12,SSE,157,1.0,3.0,77,0.00,CLR,SCT,0.00,WeatherDisplay:10.37,2013-07-03 14:44:00,
2013-07-03 10:49:00,85.6,77.6,30.12,SE,135,1.0,5.0,77,0.00,CLR,SCT,0.00,WeatherDisplay:10.37,2013-07-03 14:49:00,
2013-07-03 10:54:00,86.4,77.6,30.12,SSE,147,2.0,6.0,75,0.00,CLR,SCT,0.00,WeatherDisplay:10.37,2013-07-03 14:54:00,
2013-07-03 10:59:00,87.0,76.9,30.12,South,170,2.0,8.0,72,0.00,CLR,SCT,0.00,WeatherDisplay:10.37,2013-07-03 14:59:00,
2013-07-03 11:04:00,87.2,77.1,30.12,SSE,152,2.0,6.0,72,0.00,CLR,SCT,0.00,WeatherDisplay:10.37,2013-07-03 15:04:00,
2013-07-03 11:09:00,87.6,77.5,30.12,SSE,164,1.0,5.0,72,0.00,CLR,SCT,0.00,WeatherDisplay:10.37,2013-07-03 15:09:00,
2013-07-03 11:19:00,88.5,78.3,30.12,SE,129,1.0,3.0,72,0.00,CLR,SCT,0.00,WeatherDisplay:10.37,2013-07-03 15:19:00,
2013-07-03 11:24:00,88.4,77.8,30.12,SE,146,1.0,4.0,71,0.00,CLR,SCT,0.00,WeatherDisplay:10.37,2013-07-03 15:24:00,
2013-07-03 11:29:00,87.7,77.5,30.12,SSE,163,1.0,3.0,72,0.00,CLR,SCT,0.00,WeatherDisplay:10.37,2013-07-03 15:29:00,
2013-07-03 11:34:00,87.2,77.5,30.12,SSE,166,2.0,6.0,73,0.00,CLR,SCT,0.00,WeatherDisplay:10.37,2013-07-03 15:34:00,
2013-07-03 11:39:00,87.5,77.3,30.11,SSE,158,1.0,4.0,72,0.00,CLR,SCT,0.00,WeatherDisplay:10.37,2013-07-03 15:39:00,
2013-07-03 11:44:00,88.0,77.8,30.11,SSE,162,2.0,5.0,72,0.00,CLR,SCT,0.00,WeatherDisplay:10.37,2013-07-03 15:44:00,
2013-07-03 11:49:00,88.6,77.6,30.11,South,174,2.0,6.0,70,0.00,CLR,SCT,0.00,WeatherDisplay:10.37,2013-07-03 15:49:00,
2013-07-03 11:59:00,89.0,78.3,30.11,SSE,165,2.0,6.0,71,0.00,CLR,SCT,0.00,WeatherDisplay:10.37,2013-07-03 15:59:00,
2013-07-03 12:09:00,90.2,77.8,30.11,SSE,161,2.0,8.0,67,0.00,CLR,SCT,0.00,WeatherDisplay:10.37,2013-07-03 16:09:00,
2013-07-03 12:14:00,90.3,78.3,30.10,SE,146,1.0,4.0,68,0.00,CLR,SCT,0.00,WeatherDisplay:10.37,2013-07-03 16:14:00,
2013-07-03 12:24:00,91.0,77.1,30.10,SSE,158,2.0,8.0,64,0.00,CLR,SCT,0.00,WeatherDisplay:10.37,2013-07-03 16:24:00,
2013-07-03 12:29:00,90.8,77.9,30.10,SSE,161,3.0,7.0,66,0.00,CLR,SCT,0.00,WeatherDisplay:10.37,2013-07-03 16:29:00,
2013-07-03 12:34:00,90.6,77.2,30.10,SSE,163,2.0,8.0,65,0.00,CLR,SCT,0.00,WeatherDisplay:10.37,2013-07-03 16:34:00,
2013-07-03 12:39:00,90.5,77.6,30.10,South,171,3.0,6.0,66,0.00,CLR,SCT,0.00,WeatherDisplay:10.37,2013-07-03 16:39:00,
2013-07-03 12:44:00,91.1,77.2,30.10,SSE,157,3.0,7.0,64,0.00,CLR,SCT,0.00,WeatherDisplay:10.37,2013-07-03 16:44:00,
2013-07-03 12:49:00,91.5,77.1,30.09,SSE,162,3.0,5.0,63,0.00,CLR,SCT,0.00,WeatherDisplay:10.37,2013-07-03 16:49:00,
2013-07-03 12:54:00,91.6,77.2,30.09,SE,126,3.0,7.0,63,0.00,CLR,SCT,0.00,WeatherDisplay:10.37,2013-07-03 16:54:00,
2013-07-03 12:59:00,92.0,77.1,30.09,ESE,118,2.0,6.0,62,0.00,CLR,SCT,0.00,WeatherDisplay:10.37,2013-07-03 16:59:00,
2013-07-03 13:04:00,92.3,77.9,30.09,SSE,168,2.0,7.0,63,0.00,CLR,SCT,0.00,WeatherDisplay:10.37,2013-07-03 17:04:00,
2013-07-03 13:09:00,92.1,77.2,30.09,SSE,157,2.0,5.0,62,0.00,CLR,SCT,0.00,WeatherDisplay:10.37,2013-07-03 17:09:00,
2013-07-03 13:14:00,91.3,77.5,30.09,SSE,159,2.0,7.0,64,0.00,CLR,SCT,0.00,WeatherDisplay:10.37,2013-07-03 17:14:00,
2013-07-03 13:19:00,91.2,77.3,30.09,South,171,2.0,8.0,64,0.00,CLR,SCT,0.00,WeatherDisplay:10.37,2013-07-03 17:19:00,
2013-07-03 13:24:00,90.9,77.0,30.09,SSE,163,3.0,8.0,64,0.00,CLR,SCT,0.00,WeatherDisplay:10.37,2013-07-03 17:24:00,
2013-07-03 13:29:00,89.7,77.3,30.10,SSE,163,2.0,9.0,67,0.00,CLR,SCT,0.00,WeatherDisplay:10.37,2013-07-03 17:29:00,
2013-07-03 13:34:00,88.0,76.1,30.09,SE,137,3.0,7.0,68,0.00,CLR,SCT,0.00,WeatherDisplay:10.37,2013-07-03 17:34:00,
2013-07-03 13:39:00,87.4,76.8,30.09,ESE,121,2.0,3.0,71,0.00,CLR,SCT,0.00,WeatherDisplay:10.37,2013-07-03 17:39:00,
2013-07-03 13:49:00,88.0,77.4,30.08,ENE,66,0.0,3.0,71,0.00,CLR,SCT,0.00,WeatherDisplay:10.37,2013-07-03 17:49:00,
2013-07-03 14:04:00,89.9,78.4,30.09,East,80,2.0,5.0,69,0.00,CLR,SCT,0.00,WeatherDisplay:10.37,2013-07-03 18:04:00,
2013-07-03 14:09:00,90.0,78.4,30.08,NE,52,2.0,8.0,69,0.00,CLR,SCT,0.00,WeatherDisplay:10.37,2013-07-03 18:09:00,
2013-07-03 14:14:00,90.4,78.4,30.08,NE,52,2.0,6.0,68,0.00,CLR,SCT,0.00,WeatherDisplay:10.37,2013-07-03 18:14:00,
2013-07-03 14:19:00,90.9,79.7,30.08,ESE,114,1.0,7.0,70,0.00,CLR,SCT,0.00,WeatherDisplay:10.37,2013-07-03 18:19:00,
2013-07-03 14:24:00,91.4,79.4,30.08,East,93,3.0,12.0,68,0.00,CLR,SCT,0.00,WeatherDisplay:10.37,2013-07-03 18:24:00,
2013-07-03 14:34:00,89.3,76.9,30.08,SE,142,2.0,7.0,67,0.00,CLR,SCT,0.00,WeatherDisplay:10.37,2013-07-03 18:34:00,
2013-07-03 14:39:00,88.4,76.5,30.08,SSE,166,3.0,7.0,68,0.00,CLR,SCT,0.00,WeatherDisplay:10.37,2013-07-03 18:39:00,
2013-07-03 14:49:00,86.9,76.8,30.08,SE,131,2.0,6.0,72,0.00,CLR,SCT,0.00,WeatherDisplay:10.37,2013-07-03 18:49:00,
2013-07-03 14:54:00,85.8,75.7,30.08,SE,136,2.0,7.0,72,0.00,CLR,SCT,0.00,WeatherDisplay:10.37,2013-07-03 18:54:00,
2013-07-03 14:59:00,85.0,75.3,30.08,SE,140,2.0,5.0,73,0.00,CLR,SCT,0.00,WeatherDisplay:10.37,2013-07-03 18:59:00,
2013-07-03 15:04:00,84.5,75.7,30.08,SE,126,1.0,5.0,75,0.00,CLR,SCT,0.00,WeatherDisplay:10.37,2013-07-03 19:04:00,
2013-07-03 15:09:00,84.4,76.0,30.07,SE,125,1.0,3.0,76,0.00,CLR,SCT,0.00,WeatherDisplay:10.37,2013-07-03 19:09:00,
2013-07-03 15:19:00,84.3,75.9,30.07,ESE,105,1.0,3.0,76,0.00,CLR,SCT,0.00,WeatherDisplay:10.37,2013-07-03 19:19:00,
2013-07-03 15:24:00,84.1,75.7,30.07,ENE,73,1.0,5.0,76,0.00,CLR,SCT,0.00,WeatherDisplay:10.37,2013-07-03 19:24:00,
2013-07-03 15:29:00,84.0,76.0,30.07,ENE,70,0.0,3.0,77,0.00,CLR,SCT,0.00,WeatherDisplay:10.37,2013-07-03 19:29:00,
2013-07-03 15:39:00,84.3,76.3,30.07,ENE,63,1.0,3.0,77,0.00,CLR,SCT,0.00,WeatherDisplay:10.37,2013-07-03 19:39:00,
2013-07-03 15:44:00,84.2,76.6,30.07,ESE,105,0.0,3.0,78,0.00,CLR,SCT,0.00,WeatherDisplay:10.37,2013-07-03 19:44:00,
2013-07-03 15:54:00,84.0,76.4,30.07,ENE,78,0.0,3.0,78,0.00,CLR,SCT,0.00,WeatherDisplay:10.37,2013-07-03 19:54:00,
2013-07-03 15:59:00,83.7,76.5,30.07,SE,125,1.0,5.0,79,0.00,CLR,SCT,0.00,WeatherDisplay:10.37,2013-07-03 19:59:00,
2013-07-03 16:09:00,83.5,76.3,30.07,SE,131,1.0,2.0,79,0.00,CLR,SCT,0.00,WeatherDisplay:10.37,2013-07-03 20:09:00,
2013-07-03 16:14:00,83.3,76.5,30.06,SE,134,1.0,4.0,80,0.00,CLR,SCT,0.00,WeatherDisplay:10.37,2013-07-03 20:14:00,
2013-07-03 16:19:00,83.2,76.4,30.06,South,179,2.0,4.0,80,0.00,CLR,SCT,0.00,WeatherDisplay:10.37,2013-07-03 20:19:00,
2013-07-03 16:24:00,83.1,76.3,30.06,SE,135,1.0,5.0,80,0.00,CLR,SCT,0.00,WeatherDisplay:10.37,2013-07-03 20:24:00,
2013-07-03 16:29:00,83.1,76.3,30.06,ESE,110,1.0,4.0,80,0.00,CLR,SCT,0.00,WeatherDisplay:10.37,2013-07-03 20:29:00,
2013-07-03 16:34:00,82.9,76.5,30.06,ENE,59,1.0,6.0,81,0.00,CLR,SCT,0.00,WeatherDisplay:10.37,2013-07-03 20:34:00,
2013-07-03 16:39:00,82.8,76.7,30.06,ESE,110,1.0,5.0,82,0.00,CLR,SCT,0.00,WeatherDisplay:10.37,2013-07-03 20:39:00,
2013-07-03 16:44:00,82.7,76.6,30.06,SSE,152,1.0,6.0,82,0.00,CLR,SCT,0.00,WeatherDisplay:10.37,2013-07-03 20:44:00,
2013-07-03 16:49:00,82.7,77.0,30.07,ENE,75,1.0,2.0,83,0.00,CLR,SCT,0.00,WeatherDisplay:10.37,2013-07-03 20:49:00,
2013-07-03 16:54:00,82.7,77.0,30.07,East,86,1.0,4.0,83,0.00,CLR,SCT,0.00,WeatherDisplay:10.37,2013-07-03 20:54:00,
2013-07-03 16:59:00,82.8,77.1,30.07,ENE,69,1.0,3.0,83,0.00,CLR,SCT,0.00,WeatherDisplay:10.37,2013-07-03 20:59:00,
2013-07-03 17:04:00,82.8,77.5,30.06,SE,139,0.0,2.0,84,0.00,CLR,SCT,0.00,WeatherDisplay:10.37,2013-07-03 21:04:00,
2013-07-03 17:09:00,82.9,77.6,30.06,SSW,200,1.0,3.0,84,0.00,CLR,SCT,0.00,WeatherDisplay:10.37,2013-07-03 21:09:00,
2013-07-03 17:14:00,82.8,77.1,30.06,SE,145,0.0,4.0,83,0.00,CLR,SCT,0.00,WeatherDisplay:10.37,2013-07-03 21:14:00,
2013-07-03 17:19:00,82.8,77.4,30.06,East,99,0.0,2.0,84,0.00,CLR,SCT,0.00,WeatherDisplay:10.37,2013-07-03 21:19:00,
2013-07-03 17:24:00,82.7,76.6,30.06,SE,127,0.0,2.0,82,0.00,CLR,SCT,0.00,WeatherDisplay:10.37,2013-07-03 21:24:00,
2013-07-03 17:29:00,82.3,75.9,30.07,East,100,1.0,4.0,81,0.00,CLR,SCT,0.00,WeatherDisplay:10.37,2013-07-03 21:29:00,
2013-07-03 17:34:00,81.9,75.8,30.07,ENE,60,0.0,3.0,82,0.00,CLR,SCT,0.00,WeatherDisplay:10.37,2013-07-03 21:34:00,
2013-07-03 17:39:00,81.8,76.1,30.07,ESE,103,0.0,2.0,83,0.00,CLR,SCT,0.00,WeatherDisplay:10.37,2013-07-03 21:39:00,
2013-07-03 17:49:00,81.6,76.0,30.08,ESE,114,0.0,2.0,83,0.00,CLR,SCT,0.00,WeatherDisplay:10.37,2013-07-03 21:49:00,
2013-07-03 17:54:00,81.6,75.9,30.07,ESE,122,1.0,2.0,83,0.00,CLR,SCT,0.00,WeatherDisplay:10.37,2013-07-03 21:54:00,
2013-07-03 17:59:00,81.6,75.9,30.07,SSE,157,0.0,2.0,83,0.00,CLR,SCT,0.00,WeatherDisplay:10.37,2013-07-03 21:59:00,
2013-07-03 18:04:00,81.6,76.3,30.07,South,182,0.0,1.0,84,0.00,CLR,SCT,0.00,WeatherDisplay:10.37,2013-07-03 22:04:00,
2013-07-03 18:09:00,81.6,76.3,30.07,SSE,155,1.0,3.0,84,0.00,CLR,SCT,0.00,WeatherDisplay:10.37,2013-07-03 22:09:00,
2013-07-03 18:14:00,81.7,76.4,30.07,ESE,120,1.0,2.0,84,0.00,CLR,SCT,0.00,WeatherDisplay:10.37,2013-07-03 22:14:00,
2013-07-03 18:24:00,81.8,76.5,30.07,SSE,158,0.0,4.0,84,0.00,CLR,SCT,0.00,WeatherDisplay:10.37,2013-07-03 22:24:00,
2013-07-03 18:29:00,81.9,76.6,30.07,SSE,163,0.0,2.0,84,0.00,CLR,SCT,0.00,WeatherDisplay:10.37,2013-07-03 22:29:00,
2013-07-03 18:34:00,82.0,76.7,30.08,SSE,152,1.0,4.0,84,0.00,CLR,SCT,0.00,WeatherDisplay:10.37,2013-07-03 22:34:00,
2013-07-03 18:39:00,81.9,76.6,30.07,SSE,164,0.0,2.0,84,0.00,CLR,SCT,0.00,WeatherDisplay:10.37,2013-07-03 22:39:00,
2013-07-03 18:49:00,81.8,75.7,30.08,SSE,161,2.0,5.0,82,0.00,CLR,SCT,0.00,WeatherDisplay:10.37,2013-07-03 22:49:00,
2013-07-03 18:54:00,81.0,75.0,30.08,South,174,2.0,4.0,82,0.00,CLR,SCT,0.00,WeatherDisplay:10.37,2013-07-03 22:54:00,
2013-07-03 19:04:00,79.3,74.1,30.08,South,177,1.0,5.0,84,0.00,CLR,SCT,0.00,WeatherDisplay:10.37,2013-07-03 23:04:00,
2013-07-03 19:09:00,78.8,74.3,30.08,SSE,151,0.0,3.0,86,0.00,,SCT,0.00,WeatherDisplay:10.37,2013-07-03 23:09:00,
2013-07-03 19:14:00,78.3,73.8,30.08,SSW,203,1.0,2.0,86,0.00,,SCT,0.00,WeatherDisplay:10.37,2013-07-03 23:14:00,
2013-07-03 19:19:00,77.9,74.0,30.08,SW,222,1.0,3.0,88,0.00,,SCT,0.00,WeatherDisplay:10.37,2013-07-03 23:19:00,
2013-07-03 19:29:00,77.2,73.7,30.08,SW,217,0.0,1.0,89,0.00,,SCT,0.00,WeatherDisplay:10.37,2013-07-03 23:29:00,
2013-07-03 19:39:00,76.7,73.5,30.09,SSE,165,0.0,0.0,90,0.00,,SCT,0.00,WeatherDisplay:10.37,2013-07-03 23:39:00,
2013-07-03 19:44:00,76.5,73.3,30.09,South,190,0.0,0.0,90,0.00,,SCT,0.00,WeatherDisplay:10.37,2013-07-03 23:44:00,
2013-07-03 19:49:00,76.3,73.2,30.09,SSW,210,0.0,1.0,90,0.00,,SCT,0.00,WeatherDisplay:10.37,2013-07-03 23:49:00,
2013-07-03 19:54:00,76.3,73.5,30.09,SSW,210,0.0,1.0,91,0.00,,SCT,0.00,WeatherDisplay:10.37,2013-07-03 23:54:00,
2013-07-03 19:59:00,76.2,73.8,30.10,South,179,0.0,1.0,92,0.00,RA,SCT,0.02,WeatherDisplay:10.37,2013-07-03 23:59:00,
2013-07-03 20:04:00,76.1,73.6,30.10,South,175,0.0,1.0,92,0.00,RA,SCT,0.02,WeatherDisplay:10.37,2013-07-04 00:04:00,
2013-07-03 20:19:00,75.8,73.6,30.10,SSE,168,1.0,4.0,93,0.00,RA,SCT,0.11,WeatherDisplay:10.37,2013-07-04 00:19:00,
2013-07-03 20:24:00,75.6,73.4,30.11,South,188,1.0,4.0,93,0.00,RA,SCT,0.13,WeatherDisplay:10.37,2013-07-04 00:24:00,
2013-07-03 20:29:00,75.4,73.6,30.10,South,179,1.0,3.0,94,0.00,RA,SCT,0.13,WeatherDisplay:10.37,2013-07-04 00:29:00,
2013-07-03 20:34:00,75.3,73.5,30.11,South,171,0.0,2.0,94,0.00,RA,SCT,0.15,WeatherDisplay:10.37,2013-07-04 00:34:00,
2013-07-03 20:39:00,75.3,73.8,30.11,SE,139,0.0,1.0,95,0.00,RA,SCT,0.15,WeatherDisplay:10.37,2013-07-04 00:39:00,
2013-07-03 20:44:00,75.1,73.6,30.11,ESE,120,0.0,0.0,95,0.00,RA,SCT,0.15,WeatherDisplay:10.37,2013-07-04 00:44:00,
2013-07-03 20:49:00,74.8,73.3,30.11,East,95,0.0,0.0,95,0.00,RA,SCT,0.15,WeatherDisplay:10.37,2013-07-04 00:49:00,
2013-07-03 21:04:00,74.5,73.0,30.10,SSE,155,1.0,2.0,95,0.00,RA,SCT,0.15,WeatherDisplay:10.37,2013-07-04 01:04:00,
2013-07-03 21:09:00,74.5,73.0,30.10,SSE,167,0.0,2.0,95,0.00,RA,SCT,0.15,WeatherDisplay:10.37,2013-07-04 01:09:00,
2013-07-03 21:19:00,74.5,73.2,30.10,SSE,165,0.0,4.0,96,0.00,RA,SCT,0.15,WeatherDisplay:10.37,2013-07-04 01:19:00,
2013-07-03 21:24:00,74.5,73.3,30.10,South,174,0.0,4.0,96,0.00,RA,SCT,0.15,WeatherDisplay:10.37,2013-07-04 01:24:00,
2013-07-03 21:29:00,74.5,73.3,30.11,South,169,0.0,2.0,96,0.00,RA,SCT,0.15,WeatherDisplay:10.37,2013-07-04 01:29:00,
2013-07-03 21:34:00,74.5,73.3,30.11,South,180,0.0,2.0,96,0.00,RA,SCT,0.15,WeatherDisplay:10.37,2013-07-04 01:34:00,
2013-07-03 21:39:00,74.5,73.3,30.11,South,188,1.0,3.0,96,0.00,RA,SCT,0.15,WeatherDisplay:10.37,2013-07-04 01:39:00,
2013-07-03 21:44:00,74.5,73.3,30.11,South,186,0.0,2.0,96,0.00,RA,SCT,0.15,WeatherDisplay:10.37,2013-07-04 01:44:00,
2013-07-03 21:49:00,74.6,73.4,30.11,SSE,155,0.0,1.0,96,0.00,RA,SCT,0.15,WeatherDisplay:10.37,2013-07-04 01:49:00,
2013-07-03 22:04:00,74.6,73.4,30.12,SSE,166,0.0,3.0,96,0.00,RA,SCT,0.15,WeatherDisplay:10.37,2013-07-04 02:04:00,
2013-07-03 22:09:00,74.6,73.4,30.12,South,180,0.0,2.0,96,0.00,RA,SCT,0.15,WeatherDisplay:10.37,2013-07-04 02:09:00,
2013-07-03 22:14:00,74.8,73.9,30.13,East,94,0.0,3.0,97,0.00,RA,SCT,0.15,WeatherDisplay:10.37,2013-07-04 02:14:00,
2013-07-03 22:19:00,74.8,73.9,30.13,ENE,59,0.0,1.0,97,0.00,RA,SCT,0.15,WeatherDisplay:10.37,2013-07-04 02:19:00,
2013-07-03 22:29:00,74.8,73.9,30.14,SE,146,0.0,1.0,97,0.00,RA,SCT,0.15,WeatherDisplay:10.37,2013-07-04 02:29:00,
2013-07-03 22:34:00,74.8,73.6,30.14,SSE,160,1.0,2.0,96,0.00,RA,SCT,0.15,WeatherDisplay:10.37,2013-07-04 02:34:00,
2013-07-03 22:39:00,74.8,73.6,30.14,SE,145,0.0,1.0,96,0.00,RA,SCT,0.15,WeatherDisplay:10.37,2013-07-04 02:39:00,
2013-07-03 22:44:00,74.8,73.6,30.14,SSE,147,0.0,2.0,96,0.00,RA,SCT,0.15,WeatherDisplay:10.37,2013-07-04 02:44:00,
2013-07-03 22:49:00,74.7,73.5,30.13,SE,124,0.0,3.0,96,0.00,RA,SCT,0.15,WeatherDisplay:10.37,2013-07-04 02:49:00,
2013-07-03 22:54:00,74.7,73.5,30.13,ESE,117,0.0,4.0,96,0.00,RA,SCT,0.15,WeatherDisplay:10.37,2013-07-04 02:54:00,
2013-07-03 22:59:00,74.6,73.4,30.13,SSE,154,0.0,2.0,96,0.00,RA,SCT,0.15,WeatherDisplay:10.37,2013-07-04 02:59:00,
2013-07-03 23:09:00,74.6,73.4,30.13,South,174,1.0,3.0,96,0.00,RA,SCT,0.15,WeatherDisplay:10.37,2013-07-04 03:09:00,
2013-07-03 23:14:00,74.6,73.4,30.13,SSE,160,1.0,3.0,96,0.00,RA,SCT,0.15,WeatherDisplay:10.37,2013-07-04 03:14:00,
2013-07-03 23:24:00,74.4,72.9,30.13,SE,127,0.0,2.0,95,0.00,RA,SCT,0.15,WeatherDisplay:10.37,2013-07-04 03:24:00,
2013-07-03 23:29:00,74.4,72.9,30.13,SSE,147,0.0,1.0,95,0.00,RA,SCT,0.15,WeatherDisplay:10.37,2013-07-04 03:29:00,
2013-07-03 23:34:00,74.4,72.9,30.14,SSE,159,0.0,2.0,95,0.00,RA,SCT,0.15,WeatherDisplay:10.37,2013-07-04 03:34:00,
2013-07-03 23:39:00,74.3,72.8,30.14,South,172,0.0,2.0,95,0.00,RA,SCT,0.15,WeatherDisplay:10.37,2013-07-04 03:39:00,
2013-07-03 23:44:00,74.2,72.7,30.14,SSE,166,1.0,2.0,95,0.00,RA,SCT,0.15,WeatherDisplay:10.37,2013-07-04 03:44:00,
2013-07-03 23:49:00,74.1,72.6,30.14,SSE,154,0.0,2.0,95,0.00,RA,SCT,0.15,WeatherDisplay:10.37,2013-07-04 03:49:00,
2013-07-03 23:54:00,74.1,72.6,30.14,SSE,165,1.0,3.0,95,0.00,RA,SCT,0.15,WeatherDisplay:10.37,2013-07-04 03:54:00,